Adrian, Washington
Current Conditions -  °F | °C
As of 3:53 AM on Thursday 23 Oct 2014 (Local Time) from KEPH Reporting Station
Scattered Clouds Scattered Clouds  
Wind Chill: 44°   Ceiling: Unl
Heat Index: 47°   Visibility: 10mi
Dew Point: 45°   Wind: 7mph
Humidity: 93%   Direction: 220°SW
Pressure: 29.73"   Gusts: NA
Location:  47.4314°N, 119.485°W
Report Text: KEPH 231053Z AUTO 22006KT 10SM SCT120 08/07 A2973 RMK AO2 SLP071 T00830072
Loading
Personal Weather Stations






























Interactive Weather Map
Tropical Storm Tracking
New forecast layout! Learn more

10-Day Weather Forecast

Advertisements
Track Severe Weather on mobile